createdAt,value
2022-07-27T00:00:12.130Z,97.80
2022-07-27T00:02:42.186Z,97.90
2022-07-27T00:05:15.307Z,97.60
2022-07-27T00:07:48.262Z,97.60
2022-07-27T00:10:18.367Z,97.50
2022-07-27T00:12:48.438Z,97.60
2022-07-27T00:15:18.475Z,97.70
2022-07-27T00:17:48.505Z,97.60
2022-07-27T00:20:15.578Z,97.70
2022-07-27T00:22:45.635Z,97.60
2022-07-27T00:25:12.662Z,97.90
2022-07-27T00:27:43.439Z,97.70
2022-07-27T00:30:13.648Z,97.70
2022-07-27T00:32:46.586Z,97.70
2022-07-27T00:35:16.695Z,97.60
2022-07-27T00:37:46.818Z,97.90
2022-07-27T00:40:16.818Z,98.20
2022-07-27T00:42:47.256Z,98.30
2022-07-27T00:45:17.302Z,98.20
2022-07-27T00:47:46.334Z,98.20
2022-07-27T00:50:16.556Z,98.30
2022-07-27T00:52:47.802Z,98.20
2022-07-27T00:55:17.944Z,98.10
2022-07-27T00:57:58.518Z,98.10
2022-07-27T01:00:28.899Z,98.00
2022-07-27T01:03:08.725Z,97.90
2022-07-27T01:05:43.086Z,97.90
2022-07-27T01:08:22.279Z,97.90
2022-07-27T01:10:50.635Z,97.80
2022-07-27T01:13:18.931Z,97.80
2022-07-27T01:15:47.225Z,97.70
2022-07-27T01:18:28.096Z,97.60
2022-07-27T01:20:55.754Z,97.60
2022-07-27T01:23:24.044Z,97.50
2022-07-27T01:25:51.247Z,97.40
2022-07-27T01:28:18.344Z,97.50
2022-07-27T01:30:46.623Z,97.80
2022-07-27T01:33:16.697Z,97.90
2022-07-27T01:35:49.854Z,97.80
2022-07-27T01:38:19.958Z,97.80
2022-07-27T01:40:50.871Z,97.90
2022-07-27T01:43:24.527Z,97.90
2022-07-27T01:45:51.592Z,97.80
2022-07-27T01:48:22.469Z,97.70
2022-07-27T01:50:53.415Z,97.60
2022-07-27T01:53:22.874Z,97.70
2022-07-27T01:55:52.978Z,97.70
2022-07-27T01:58:23.019Z,98.00
2022-07-27T02:00:53.166Z,98.20
2022-07-27T02:03:26.209Z,98.30
2022-07-27T02:05:56.386Z,98.50
2022-07-27T02:08:26.722Z,98.70
2022-07-27T02:11:16.364Z,99.00
2022-07-27T02:13:49.353Z,99.10
2022-07-27T02:16:18.492Z,99.20
2022-07-27T02:18:48.960Z,99.30
2022-07-27T02:21:19.199Z,99.40
2022-07-27T02:23:49.393Z,99.50
2022-07-27T02:26:18.600Z,99.60
2022-07-27T02:28:48.697Z,99.60
2022-07-27T02:31:17.709Z,99.70
2022-07-27T02:33:47.786Z,99.70
2022-07-27T02:36:15.772Z,99.70
2022-07-27T02:38:46.109Z,99.80
2022-07-27T02:41:16.163Z,99.70
2022-07-27T02:43:46.493Z,99.70
2022-07-27T02:46:16.922Z,99.60
2022-07-27T02:48:43.988Z,99.50
2022-07-27T02:51:11.111Z,99.80
2022-07-27T02:53:38.142Z,99.40
2022-07-27T02:56:05.294Z,99.40
2022-07-27T02:58:35.367Z,99.10
2022-07-27T03:01:02.339Z,99.00
2022-07-27T03:03:37.132Z,98.80
2022-07-27T03:06:07.472Z,98.70
2022-07-27T03:08:43.626Z,98.60
2022-07-27T03:11:10.677Z,98.50
2022-07-27T03:13:37.663Z,98.60
2022-07-27T03:16:05.076Z,98.70
2022-07-27T03:18:32.178Z,98.80
2022-07-27T03:20:59.083Z,98.80
2022-07-27T03:23:29.092Z,98.90
2022-07-27T03:25:57.083Z,98.90
2022-07-27T03:28:47.998Z,98.90
2022-07-27T03:31:18.227Z,99.00
2022-07-27T03:33:45.480Z,99.10
2022-07-27T03:36:15.578Z,99.20
2022-07-27T03:38:45.675Z,99.20
2022-07-27T03:41:15.739Z,99.10
2022-07-27T03:43:45.837Z,99.10
2022-07-27T03:46:15.876Z,99.00
2022-07-27T03:48:42.988Z,99.00
2022-07-27T03:51:13.695Z,99.00
2022-07-27T03:53:43.752Z,99.10
2022-07-27T03:56:13.815Z,99.20
2022-07-27T03:58:44.417Z,99.30
2022-07-27T04:01:18.591Z,99.30
2022-07-27T04:03:48.719Z,99.10
2022-07-27T04:06:15.657Z,98.90
2022-07-27T04:08:45.699Z,98.80
2022-07-27T04:11:17.714Z,98.70
2022-07-27T04:13:51.801Z,98.90
2022-07-27T04:16:21.962Z,98.80
2022-07-27T04:18:53.534Z,98.70
2022-07-27T04:21:20.518Z,98.90
2022-07-27T04:23:50.512Z,99.20
2022-07-27T04:26:20.568Z,99.20
2022-07-27T04:28:48.574Z,99.50
2022-07-27T04:31:17.299Z,99.20
2022-07-27T04:33:47.498Z,98.80
2022-07-27T04:36:15.502Z,98.90
2022-07-27T04:38:42.563Z,99.00
2022-07-27T04:41:13.038Z,98.90
2022-07-27T04:43:43.169Z,98.90
2022-07-27T04:46:15.670Z,99.00
2022-07-27T04:48:49.271Z,99.00
2022-07-27T04:51:18.942Z,99.00
2022-07-27T04:53:53.512Z,98.70
2022-07-27T04:56:28.441Z,98.70
2022-07-27T04:58:58.591Z,98.80
2022-07-27T05:01:33.104Z,98.80
2022-07-27T05:04:04.127Z,98.60
2022-07-27T05:06:34.293Z,98.60
2022-07-27T05:09:04.327Z,98.70
2022-07-27T05:11:33.325Z,98.60
2022-07-27T05:14:04.064Z,98.50
2022-07-27T05:16:34.085Z,98.20
2022-07-27T05:19:02.228Z,98.10
2022-07-27T05:21:29.374Z,98.00
2022-07-27T05:23:57.464Z,97.90
2022-07-27T05:26:27.483Z,97.80
2022-07-27T05:28:57.551Z,97.80
2022-07-27T05:31:30.777Z,97.50
2022-07-27T05:33:58.910Z,97.60
2022-07-27T05:36:29.030Z,97.50
2022-07-27T05:38:59.153Z,97.50
2022-07-27T05:41:28.387Z,97.30
2022-07-27T05:43:58.609Z,97.00
2022-07-27T05:46:32.644Z,97.10
2022-07-27T05:49:01.079Z,97.10
2022-07-27T05:51:34.344Z,97.00
2022-07-27T05:54:04.767Z,97.20
2022-07-27T05:56:35.712Z,97.30
2022-07-27T05:59:07.966Z,97.30
2022-07-27T06:01:38.762Z,97.20
2022-07-27T06:04:06.850Z,97.10
2022-07-27T06:06:55.328Z,97.10
2022-07-27T06:09:23.302Z,97.00
2022-07-27T06:11:53.456Z,96.90
2022-07-27T06:14:23.504Z,96.60
2022-07-27T06:16:52.544Z,96.60
2022-07-27T06:19:22.667Z,96.50
2022-07-27T06:21:53.565Z,96.60
2022-07-27T06:24:24.118Z,96.40
2022-07-27T06:26:51.112Z,96.60
2022-07-27T06:29:19.279Z,96.50
2022-07-27T06:31:47.337Z,96.40
2022-07-27T06:34:17.641Z,96.40
2022-07-27T06:36:49.923Z,96.60
2022-07-27T06:39:20.532Z,96.20
2022-07-27T06:41:53.644Z,95.70
2022-07-27T06:44:27.927Z,95.80
2022-07-27T06:46:58.067Z,95.70
2022-07-27T06:49:25.129Z,95.30
2022-07-27T06:51:53.293Z,94.90
2022-07-27T06:54:23.395Z,94.30
2022-07-27T06:56:50.340Z,94.10
2022-07-27T06:59:19.340Z,94.40
2022-07-27T07:01:48.776Z,94.60
2022-07-27T07:04:23.215Z,94.50
2022-07-27T07:06:53.424Z,94.40
2022-07-27T07:09:23.443Z,94.40
2022-07-27T07:11:57.197Z,94.60
2022-07-27T07:14:27.278Z,94.40
2022-07-27T07:16:54.678Z,94.60
2022-07-27T07:19:21.660Z,94.30
2022-07-27T07:21:49.985Z,94.30
2022-07-27T07:24:18.852Z,94.40
2022-07-27T07:26:45.854Z,94.50
2022-07-27T07:29:16.469Z,94.50
2022-07-27T07:31:43.579Z,93.90
2022-07-27T07:34:13.755Z,93.60
2022-07-27T07:36:41.020Z,93.20
2022-07-27T07:39:11.243Z,92.70
2022-07-27T07:41:41.537Z,92.40
2022-07-27T07:44:11.614Z,92.20
2022-07-27T07:46:47.099Z,92.70
2022-07-27T07:49:18.142Z,92.80
2022-07-27T07:51:51.544Z,92.60
2022-07-27T07:54:21.606Z,92.30
2022-07-27T07:56:51.778Z,92.00
2022-07-27T07:59:24.788Z,91.90
2022-07-27T08:01:52.819Z,91.80
2022-07-27T08:04:22.983Z,91.50
2022-07-27T08:06:53.113Z,91.50
2022-07-27T08:09:21.807Z,91.20
2022-07-27T08:11:52.691Z,90.90
2022-07-27T08:14:35.933Z,90.50
2022-07-27T08:17:14.190Z,90.20
2022-07-27T08:19:44.328Z,89.70
2022-07-27T08:22:12.065Z,89.40
2022-07-27T08:24:39.999Z,88.90
2022-07-27T08:27:10.365Z,87.90
2022-07-27T08:29:40.508Z,87.40
2022-07-27T08:32:13.556Z,86.50
2022-07-27T08:34:43.601Z,86.30
2022-07-27T08:37:15.614Z,85.10
2022-07-27T08:40:37.949Z,84.80
2022-07-27T08:42:33.243Z,84.60
2022-07-27T08:45:00.638Z,84.50
2022-07-27T08:47:31.726Z,83.80
2022-07-27T08:49:59.124Z,83.10
2022-07-27T08:53:23.068Z,82.90
2022-07-27T08:55:53.288Z,82.70
2022-07-27T08:58:23.674Z,82.70
2022-07-27T09:00:51.112Z,81.60
2022-07-27T09:03:23.031Z,80.70
2022-07-27T09:05:55.477Z,80.10
2022-07-27T09:08:30.515Z,79.20
2022-07-27T09:10:59.901Z,78.70
2022-07-27T09:13:32.547Z,77.30
2022-07-27T09:16:17.987Z,77.00
2022-07-27T09:18:58.781Z,75.40
2022-07-27T09:21:26.381Z,74.70
2022-07-27T09:24:17.898Z,75.20
2022-07-27T09:27:03.643Z,74.90
2022-07-27T09:29:34.404Z,74.40
2022-07-27T09:32:16.910Z,75.00
2022-07-27T09:34:45.096Z,74.30
2022-07-27T09:37:24.623Z,73.50
2022-07-27T09:39:52.543Z,72.90
2022-07-27T09:43:05.644Z,72.70
2022-07-27T09:45:32.719Z,73.00
2022-07-27T09:48:12.808Z,71.50
2022-07-27T09:51:01.503Z,71.50
2022-07-27T09:53:42.791Z,71.20
2022-07-27T09:56:16.389Z,72.20
2022-07-27T09:58:48.460Z,71.20
2022-07-27T10:01:43.934Z,71.20
2022-07-27T10:04:15.829Z,70.80
2022-07-27T10:07:01.600Z,70.80
2022-07-27T10:09:35.122Z,69.50
2022-07-27T10:12:05.632Z,68.70
2022-07-27T10:14:35.354Z,69.50
2022-07-27T10:17:04.121Z,68.20
2022-07-27T10:19:50.610Z,68.40
2022-07-27T10:22:48.515Z,67.70
2022-07-27T10:25:23.629Z,68.40
2022-07-27T10:28:10.346Z,67.50
2022-07-27T10:30:40.635Z,66.60
2022-07-27T10:33:53.526Z,65.70
2022-07-27T10:36:23.671Z,64.90
2022-07-27T10:38:56.999Z,65.00
2022-07-27T10:41:31.501Z,64.50
2022-07-27T10:44:18.355Z,65.30
2022-07-27T10:46:51.508Z,65.70
2022-07-27T10:49:25.507Z,65.60
2022-07-27T10:51:53.351Z,66.20
2022-07-27T10:54:22.366Z,65.50
2022-07-27T10:56:58.234Z,65.70
2022-07-27T11:00:07.351Z,65.00
2022-07-27T11:02:42.975Z,64.00
2022-07-27T11:05:42.571Z,64.40
2022-07-27T11:10:52.710Z,66.40
2022-07-27T11:13:22.257Z,65.80
2022-07-27T11:19:01.465Z,65.50
2022-07-27T11:21:30.189Z,64.70
2022-07-27T11:24:16.758Z,65.20
2022-07-27T11:26:48.454Z,64.50
2022-07-27T11:29:18.252Z,65.20
2022-07-27T11:31:56.464Z,65.00
2022-07-27T11:34:29.968Z,64.40
2022-07-27T11:37:01.897Z,64.30
2022-07-27T11:39:59.170Z,64.50
2022-07-27T11:42:24.181Z,65.00
2022-07-27T11:44:57.150Z,65.00
2022-07-27T11:47:29.566Z,64.80
2022-07-27T11:50:08.640Z,64.90
2022-07-27T11:52:36.735Z,65.00
2022-07-27T11:55:07.960Z,65.50
2022-07-27T11:57:36.189Z,65.50
2022-07-27T12:00:05.072Z,64.70
2022-07-27T12:02:35.162Z,65.30
2022-07-27T12:05:10.473Z,65.50
2022-07-27T12:07:42.163Z,65.00
2022-07-27T12:10:15.131Z,65.40
2022-07-27T12:12:49.286Z,65.60
2022-07-27T12:15:45.726Z,65.70
2022-07-27T12:18:10.166Z,66.70
2022-07-27T12:20:40.268Z,66.40
2022-07-27T12:23:09.048Z,66.50
2022-07-27T12:25:43.503Z,66.70
2022-07-27T12:28:15.796Z,66.80
2022-07-27T12:30:49.730Z,67.00
2022-07-27T12:33:35.673Z,66.60
2022-07-27T12:36:08.772Z,67.20
2022-07-27T12:38:49.631Z,67.00
2022-07-27T12:41:38.247Z,67.80
2022-07-27T12:44:17.032Z,67.90
2022-07-27T12:47:02.002Z,67.40
2022-07-27T12:49:40.781Z,66.50
2022-07-27T12:52:11.436Z,67.50
2022-07-27T12:54:38.475Z,68.10
2022-07-27T12:57:08.579Z,67.60
2022-07-27T12:59:35.701Z,68.30
2022-07-27T13:02:05.848Z,67.90
2022-07-27T13:04:35.955Z,68.30
2022-07-27T13:07:06.128Z,68.80
2022-07-27T13:10:01.998Z,68.50
2022-07-27T13:12:24.345Z,68.30
2022-07-27T13:14:51.793Z,69.00
2022-07-27T13:17:21.764Z,68.20
2022-07-27T13:19:51.036Z,67.90
2022-07-27T13:22:21.218Z,67.60
2022-07-27T13:24:51.383Z,67.90
2022-07-27T13:27:21.823Z,68.10
2022-07-27T13:29:48.734Z,68.80
2022-07-27T13:32:15.806Z,69.00
2022-07-27T13:34:45.602Z,68.90
2022-07-27T13:37:12.609Z,68.30
2022-07-27T13:39:42.758Z,69.20
2022-07-27T13:42:13.112Z,69.20
2022-07-27T13:45:03.916Z,69.70
2022-07-27T13:47:30.194Z,70.70
2022-07-27T13:49:59.281Z,70.60
2022-07-27T13:52:26.264Z,71.30
2022-07-27T13:54:56.447Z,71.90
2022-07-27T13:57:26.569Z,73.30
2022-07-27T13:59:53.701Z,73.50
2022-07-27T14:02:25.963Z,73.10
2022-07-27T14:04:56.132Z,73.40
2022-07-27T14:07:28.481Z,73.60
2022-07-27T14:10:14.377Z,73.50
2022-07-27T14:12:44.701Z,73.80
2022-07-27T14:15:12.223Z,74.50
2022-07-27T14:17:41.734Z,75.20
2022-07-27T14:20:11.596Z,74.30
2022-07-27T14:22:41.692Z,74.10
2022-07-27T14:25:12.241Z,74.10
2022-07-27T14:27:43.317Z,74.20
2022-07-27T14:30:16.211Z,74.10
2022-07-27T14:32:50.949Z,74.90
2022-07-27T14:35:19.147Z,75.90
2022-07-27T14:37:46.130Z,76.40
2022-07-27T14:40:13.940Z,77.00
2022-07-27T14:42:41.667Z,76.80
2022-07-27T14:45:10.056Z,77.50
2022-07-27T14:47:43.142Z,77.30
2022-07-27T14:50:13.357Z,77.50
2022-07-27T14:52:40.256Z,77.10
2022-07-27T14:55:10.534Z,77.40
2022-07-27T14:57:40.891Z,78.10
2022-07-27T15:00:13.535Z,77.70
2022-07-27T15:02:44.489Z,77.70
2022-07-27T15:05:17.715Z,78.20
2022-07-27T15:07:47.359Z,78.00
2022-07-27T15:10:15.462Z,78.00
2022-07-27T15:12:45.634Z,78.20
2022-07-27T15:15:13.599Z,77.90
2022-07-27T15:17:42.018Z,77.60
2022-07-27T15:20:09.942Z,77.00
2022-07-27T15:22:37.720Z,77.00
2022-07-27T15:25:05.768Z,77.90
2022-07-27T15:27:32.776Z,78.60
2022-07-27T15:30:03.547Z,79.70
2022-07-27T15:32:30.481Z,79.70
2022-07-27T15:34:57.514Z,79.50
2022-07-27T15:37:24.521Z,80.20
2022-07-27T15:39:51.771Z,80.10
2022-07-27T15:42:19.828Z,80.20
2022-07-27T15:44:47.922Z,80.10
2022-07-27T15:47:15.051Z,80.50
2022-07-27T15:49:45.167Z,80.10
2022-07-27T15:52:12.307Z,80.00
2022-07-27T15:54:45.487Z,80.10
2022-07-27T15:57:14.878Z,80.60
2022-07-27T15:59:41.827Z,79.80
2022-07-27T16:02:12.341Z,79.60
2022-07-27T16:04:39.714Z,80.30
2022-07-27T16:07:06.652Z,80.70
2022-07-27T16:09:33.722Z,80.80
2022-07-27T16:12:00.678Z,81.50
2022-07-27T16:14:27.580Z,81.40
2022-07-27T16:16:54.527Z,81.10
2022-07-27T16:19:24.598Z,82.10
2022-07-27T16:21:53.659Z,82.30
2022-07-27T16:24:23.608Z,81.70
2022-07-27T16:26:54.159Z,82.60
2022-07-27T16:29:24.227Z,82.60
2022-07-27T16:32:01.114Z,83.40
2022-07-27T16:34:31.460Z,84.30
2022-07-27T16:37:00.918Z,85.60
2022-07-27T16:39:28.194Z,85.80
2022-07-27T16:41:55.397Z,85.00
2022-07-27T16:44:23.484Z,86.00
2022-07-27T16:46:50.971Z,85.60
2022-07-27T16:49:19.180Z,86.00
2022-07-27T16:51:46.814Z,85.60
2022-07-27T16:54:16.996Z,85.90
2022-07-27T16:56:47.571Z,87.00
2022-07-27T16:59:27.775Z,87.60
2022-07-27T17:01:55.878Z,87.30
2022-07-27T17:04:24.031Z,86.50
2022-07-27T17:06:52.073Z,86.20
2022-07-27T17:09:20.009Z,86.40
2022-07-27T17:11:48.078Z,86.70
2022-07-27T17:14:16.707Z,85.80
2022-07-27T17:16:52.017Z,85.50
2022-07-27T17:19:19.581Z,86.50
2022-07-27T17:21:46.554Z,86.30
2022-07-27T17:24:13.664Z,86.50
2022-07-27T17:26:42.651Z,86.60
2022-07-27T17:29:10.846Z,87.10
2022-07-27T17:31:38.096Z,88.70
2022-07-27T17:34:05.180Z,88.60
2022-07-27T17:36:34.235Z,88.60
2022-07-27T17:39:06.123Z,88.50
2022-07-27T17:41:33.356Z,87.90
2022-07-27T17:44:05.151Z,87.90
2022-07-27T17:46:38.954Z,87.40
2022-07-27T17:49:08.126Z,87.80
2022-07-27T17:51:36.228Z,88.50
2022-07-27T17:54:04.603Z,89.00
2022-07-27T17:56:32.607Z,89.30
2022-07-27T17:59:20.439Z,89.80
2022-07-27T18:01:50.759Z,90.20
2022-07-27T18:04:18.830Z,90.10
2022-07-27T18:06:48.963Z,90.20
2022-07-27T18:09:17.603Z,90.60
2022-07-27T18:11:45.662Z,90.90
2022-07-27T18:14:12.717Z,90.90
2022-07-27T18:16:40.871Z,91.10
2022-07-27T18:19:08.574Z,91.20
2022-07-27T18:21:37.258Z,91.50
2022-07-27T18:24:07.699Z,91.70
2022-07-27T18:26:38.930Z,92.10
2022-07-27T18:29:09.958Z,91.90
2022-07-27T18:31:40.423Z,91.70
2022-07-27T18:34:12.589Z,91.80
2022-07-27T18:36:40.035Z,92.20
2022-07-27T18:39:07.007Z,91.80
2022-07-27T18:41:35.010Z,91.70
2022-07-27T18:44:02.066Z,91.80
2022-07-27T18:46:29.180Z,92.30
2022-07-27T18:48:56.427Z,92.50
2022-07-27T18:51:23.522Z,92.70
2022-07-27T18:53:56.617Z,92.70
2022-07-27T18:56:23.735Z,92.80
2022-07-27T18:58:55.067Z,93.20
2022-07-27T19:01:22.118Z,93.20
2022-07-27T19:03:50.522Z,93.20
2022-07-27T19:06:23.739Z,93.20
2022-07-27T19:08:54.747Z,93.30
2022-07-27T19:11:24.898Z,93.50
2022-07-27T19:13:56.583Z,94.00
2022-07-27T19:16:25.526Z,93.70
2022-07-27T19:18:56.232Z,93.80
2022-07-27T19:21:26.349Z,94.20
2022-07-27T19:23:56.566Z,94.00
2022-07-27T19:26:29.815Z,94.20
2022-07-27T19:28:56.809Z,94.20
2022-07-27T19:31:25.830Z,94.30
2022-07-27T19:33:53.078Z,94.00
2022-07-27T19:36:22.959Z,93.90
2022-07-27T19:38:52.203Z,93.80
2022-07-27T19:41:22.527Z,93.90
2022-07-27T19:43:50.578Z,94.20
2022-07-27T19:46:17.732Z,94.30
2022-07-27T19:48:50.748Z,94.50
2022-07-27T19:51:20.999Z,94.90
2022-07-27T19:53:48.868Z,95.10
2022-07-27T19:56:19.055Z,95.30
2022-07-27T19:58:48.062Z,95.10
2022-07-27T20:01:16.265Z,95.30
2022-07-27T20:03:47.410Z,95.30
2022-07-27T20:06:25.636Z,95.60
2022-07-27T20:08:59.744Z,95.90
2022-07-27T20:11:30.037Z,96.20
2022-07-27T20:14:01.936Z,96.30
2022-07-27T20:16:34.262Z,96.60
2022-07-27T20:19:05.205Z,96.70
2022-07-27T20:21:40.358Z,96.70
2022-07-27T20:24:11.126Z,96.80
2022-07-27T20:26:48.890Z,96.80
2022-07-27T20:29:17.335Z,96.80
2022-07-27T20:31:45.533Z,96.60
2022-07-27T20:34:15.571Z,96.80
2022-07-27T20:36:43.629Z,96.70
2022-07-27T20:39:17.333Z,96.60
2022-07-27T20:41:47.137Z,96.70
2022-07-27T20:44:21.232Z,96.90
2022-07-27T20:46:51.364Z,96.90
2022-07-27T20:49:18.685Z,96.80
2022-07-27T20:51:46.991Z,96.70
2022-07-27T20:54:16.532Z,96.70
2022-07-27T20:56:46.546Z,97.20
2022-07-27T20:59:16.526Z,96.90
2022-07-27T21:01:46.292Z,97.00
2022-07-27T21:04:13.292Z,97.00
2022-07-27T21:06:41.640Z,97.20
2022-07-27T21:09:08.961Z,97.20
2022-07-27T21:11:42.044Z,97.30
2022-07-27T21:14:10.222Z,97.20
2022-07-27T21:16:37.829Z,97.30
2022-07-27T21:19:06.961Z,97.40
2022-07-27T21:21:36.099Z,97.50
2022-07-27T21:24:17.058Z,97.50
2022-07-27T21:26:48.842Z,97.50
2022-07-27T21:29:19.537Z,97.50
2022-07-27T21:31:49.270Z,97.50
2022-07-27T21:34:19.925Z,97.50
2022-07-27T21:36:49.311Z,97.50
2022-07-27T21:39:18.065Z,97.60
2022-07-27T21:41:45.723Z,97.70
2022-07-27T21:44:14.583Z,97.80
2022-07-27T21:46:43.492Z,98.00
2022-07-27T21:49:14.227Z,98.10
2022-07-27T21:51:44.366Z,98.10
2022-07-27T21:54:14.871Z,98.00
2022-07-27T21:56:50.361Z,98.00
2022-07-27T21:59:20.808Z,98.00
2022-07-27T22:01:48.766Z,97.90
2022-07-27T22:04:16.876Z,97.90
2022-07-27T22:06:45.300Z,97.80
2022-07-27T22:09:14.390Z,97.60
2022-07-27T22:11:42.386Z,97.50
2022-07-27T22:14:09.720Z,97.40
2022-07-27T22:16:37.918Z,97.40
2022-07-27T22:19:05.230Z,97.30
2022-07-27T22:21:33.286Z,97.30
2022-07-27T22:24:00.195Z,97.20
2022-07-27T22:26:27.161Z,97.20
2022-07-27T22:28:54.762Z,97.20
2022-07-27T22:31:23.550Z,97.10
2022-07-27T22:33:50.954Z,97.00
2022-07-27T22:36:19.426Z,96.90
2022-07-27T22:38:47.385Z,96.70
2022-07-27T22:41:17.614Z,96.60
2022-07-27T22:43:45.767Z,96.60
2022-07-27T22:46:16.143Z,96.40
2022-07-27T22:48:46.257Z,96.30
2022-07-27T22:51:16.459Z,96.30
2022-07-27T22:53:43.424Z,96.30
2022-07-27T22:56:10.611Z,96.20
2022-07-27T22:58:37.648Z,96.20
2022-07-27T23:01:05.717Z,96.10
2022-07-27T23:03:35.015Z,96.10
2022-07-27T23:06:05.300Z,96.00
2022-07-27T23:08:33.435Z,96.10
2022-07-27T23:11:02.937Z,96.10
2022-07-27T23:13:33.782Z,96.20
2022-07-27T23:16:04.093Z,96.20
2022-07-27T23:18:34.315Z,96.30
2022-07-27T23:21:04.369Z,96.40
2022-07-27T23:23:39.886Z,96.40
2022-07-27T23:26:17.003Z,96.50
2022-07-27T23:28:44.359Z,96.60
2022-07-27T23:31:11.674Z,96.80
2022-07-27T23:33:42.771Z,96.80
2022-07-27T23:36:10.524Z,97.00
2022-07-27T23:38:39.493Z,97.10
2022-07-27T23:41:09.499Z,97.20
2022-07-27T23:43:37.577Z,97.20
2022-07-27T23:46:07.847Z,97.40
2022-07-27T23:48:35.922Z,97.50
2022-07-27T23:51:04.044Z,97.60
2022-07-27T23:53:36.964Z,97.70
2022-07-27T23:56:05.969Z,97.70
2022-07-27T23:58:34.984Z,97.80
